createdAt,value
2022-09-28T00:00:09.961Z,10.63
2022-09-28T00:03:04.675Z,10.63
2022-09-28T00:05:36.826Z,10.64
2022-09-28T00:08:08.699Z,10.63
2022-09-28T00:10:43.477Z,10.64
2022-09-28T00:13:15.840Z,10.63
2022-09-28T00:15:47.639Z,10.63
2022-09-28T00:18:19.773Z,10.62
2022-09-28T00:21:00.304Z,10.62
2022-09-28T00:23:33.188Z,10.60
2022-09-28T00:26:08.702Z,10.58
2022-09-28T00:28:40.673Z,10.57
2022-09-28T00:31:23.448Z,10.56
2022-09-28T00:34:01.777Z,10.54
2022-09-28T00:36:39.053Z,10.54
2022-09-28T00:39:15.543Z,10.52
2022-09-28T00:41:48.494Z,10.52
2022-09-28T00:44:47.398Z,10.51
2022-09-28T00:47:41.241Z,10.48
2022-09-28T00:50:19.759Z,10.46
2022-09-28T00:53:02.456Z,10.45
2022-09-28T00:55:39.659Z,10.43
2022-09-28T00:58:19.412Z,10.42
2022-09-28T01:00:54.126Z,10.41
2022-09-28T01:03:29.501Z,10.40
2022-09-28T01:06:06.329Z,10.40
2022-09-28T01:08:41.247Z,10.39
2022-09-28T01:11:13.284Z,10.39
2022-09-28T01:13:45.802Z,10.38
2022-09-28T01:16:28.756Z,10.37
2022-09-28T01:19:13.076Z,10.37
2022-09-28T01:21:54.737Z,10.36
2022-09-28T01:24:43.332Z,10.36
2022-09-28T01:27:21.500Z,10.34
2022-09-28T01:30:02.285Z,10.34
2022-09-28T01:32:44.706Z,10.33
2022-09-28T01:35:22.735Z,10.31
2022-09-28T01:37:57.930Z,10.31
2022-09-28T01:40:31.365Z,10.30
2022-09-28T01:43:07.919Z,10.30
2022-09-28T01:45:45.783Z,10.29
2022-09-28T01:48:24.042Z,10.29
2022-09-28T01:50:59.389Z,10.29
2022-09-28T01:53:38.135Z,10.28
2022-09-28T01:56:18.171Z,10.28
2022-09-28T01:58:54.375Z,10.27
2022-09-28T02:01:35.258Z,10.27
2022-09-28T02:04:13.176Z,10.25
2022-09-28T02:06:52.043Z,10.23
2022-09-28T02:09:33.717Z,10.22
2022-09-28T02:12:11.847Z,10.21
2022-09-28T02:14:47.736Z,10.19
2022-09-28T02:17:19.789Z,10.17
2022-09-28T02:19:52.488Z,10.14
2022-09-28T02:22:30.235Z,10.13
2022-09-28T02:25:09.559Z,10.12
2022-09-28T02:27:46.298Z,10.11
2022-09-28T02:30:19.090Z,10.10
2022-09-28T02:32:55.436Z,10.10
2022-09-28T02:35:28.377Z,10.09
2022-09-28T02:38:01.265Z,10.07
2022-09-28T02:40:37.903Z,10.06
2022-09-28T02:43:21.186Z,10.05
2022-09-28T02:46:03.256Z,10.04
2022-09-28T02:49:17.445Z,10.04
2022-09-28T02:52:02.311Z,10.01
2022-09-28T02:54:50.050Z,10.01
2022-09-28T02:57:38.481Z,10.02
2022-09-28T03:00:15.861Z,10.02
2022-09-28T03:03:00.288Z,10.02
2022-09-28T03:05:39.810Z,10.01
2022-09-28T03:08:21.335Z,10.00
2022-09-28T03:11:00.635Z,9.99
2022-09-28T03:13:35.548Z,9.96
2022-09-28T03:16:13.690Z,9.95
2022-09-28T03:18:46.319Z,9.93
2022-09-28T03:21:18.411Z,9.91
2022-09-28T03:23:50.264Z,9.90
2022-09-28T03:26:22.405Z,9.89
2022-09-28T03:28:54.316Z,9.89
2022-09-28T03:31:27.935Z,9.88
2022-09-28T03:33:59.854Z,9.87
2022-09-28T03:36:31.912Z,9.85
2022-09-28T03:39:04.567Z,9.83
2022-09-28T03:41:36.427Z,9.82
2022-09-28T03:44:08.514Z,9.82
2022-09-28T03:46:40.412Z,9.82
2022-09-28T03:49:13.867Z,9.81
2022-09-28T03:51:45.704Z,9.79
2022-09-28T03:54:17.595Z,9.77
2022-09-28T03:56:50.415Z,9.76
2022-09-28T03:59:22.262Z,9.75
2022-09-28T04:01:54.561Z,9.74
2022-09-28T04:04:26.873Z,9.72
2022-09-28T04:07:00.914Z,9.73
2022-09-28T04:09:32.810Z,9.71
2022-09-28T04:12:05.257Z,9.71
2022-09-28T04:14:38.190Z,9.71
2022-09-28T04:17:12.182Z,9.72
2022-09-28T04:19:45.265Z,9.73
2022-09-28T04:22:25.666Z,9.72
2022-09-28T04:24:58.731Z,9.71
2022-09-28T04:27:57.112Z,9.69
2022-09-28T04:30:29.114Z,9.66
2022-09-28T04:33:01.006Z,9.63
2022-09-28T04:35:34.647Z,9.60
2022-09-28T04:38:07.582Z,9.53
2022-09-28T04:41:30.587Z,9.56
2022-09-28T04:44:02.786Z,9.52
2022-09-28T04:46:35.872Z,9.48
2022-09-28T04:49:35.546Z,9.45
2022-09-28T04:52:18.063Z,9.43
2022-09-28T04:54:53.649Z,9.39
2022-09-28T04:57:25.970Z,9.36
2022-09-28T04:59:57.848Z,9.31
2022-09-28T05:02:29.771Z,9.29
2022-09-28T05:05:20.762Z,9.27
2022-09-28T05:08:26.325Z,9.25
2022-09-28T05:11:03.695Z,9.22
2022-09-28T05:13:42.049Z,9.17
2022-09-28T05:16:15.825Z,9.16
2022-09-28T05:19:07.822Z,9.15
2022-09-28T05:21:39.660Z,9.14
2022-09-28T05:24:13.054Z,9.13
2022-09-28T05:26:45.421Z,9.08
2022-09-28T05:29:17.733Z,9.10
2022-09-28T05:32:08.403Z,9.09
2022-09-28T05:35:01.344Z,9.08
2022-09-28T05:37:42.601Z,9.06
2022-09-28T05:40:16.081Z,9.05
2022-09-28T05:42:48.165Z,9.05
2022-09-28T05:45:20.028Z,9.05
2022-09-28T05:47:51.873Z,9.05
2022-09-28T05:50:26.058Z,9.04
2022-09-28T05:53:02.919Z,9.03
2022-09-28T05:55:35.490Z,9.02
2022-09-28T05:58:08.733Z,9.00
2022-09-28T06:00:43.290Z,9.01
2022-09-28T06:03:16.772Z,8.98
2022-09-28T06:05:54.732Z,9.03
2022-09-28T06:08:26.789Z,9.06
2022-09-28T06:11:08.504Z,9.05
2022-09-28T06:13:40.924Z,9.05
2022-09-28T06:16:17.525Z,9.06
2022-09-28T06:18:49.782Z,9.07
2022-09-28T06:21:36.971Z,9.07
2022-09-28T06:24:09.017Z,9.10
2022-09-28T06:26:41.910Z,9.11
2022-09-28T06:29:19.591Z,9.13
2022-09-28T06:31:52.155Z,9.13
2022-09-28T06:34:24.881Z,9.14
2022-09-28T06:36:57.116Z,9.16
2022-09-28T06:39:29.004Z,9.19
2022-09-28T06:42:03.956Z,9.24
2022-09-28T06:44:56.275Z,9.27
2022-09-28T06:47:53.353Z,9.27
2022-09-28T06:50:41.461Z,9.37
2022-09-28T06:53:19.312Z,9.41
2022-09-28T06:55:57.624Z,9.43
2022-09-28T06:58:31.332Z,9.48
2022-09-28T07:01:05.831Z,9.56
2022-09-28T07:04:04.398Z,9.66
2022-09-28T07:06:55.025Z,9.75
2022-09-28T07:09:50.335Z,9.80
2022-09-28T07:12:41.892Z,9.85
2022-09-28T07:15:29.497Z,9.85
2022-09-28T07:18:04.063Z,9.84
2022-09-28T07:20:50.960Z,9.88
2022-09-28T07:23:27.610Z,9.94
2022-09-28T07:26:34.648Z,9.99
2022-09-28T07:29:11.925Z,9.94
2022-09-28T07:32:06.149Z,9.88
2022-09-28T07:34:59.013Z,9.87
2022-09-28T07:37:50.071Z,9.89
2022-09-28T07:40:39.741Z,9.89
2022-09-28T07:43:13.283Z,9.88
2022-09-28T07:45:48.062Z,9.90
2022-09-28T07:48:22.304Z,9.97
2022-09-28T07:51:21.369Z,10.06
2022-09-28T07:54:21.145Z,10.12
2022-09-28T07:57:11.617Z,10.16
2022-09-28T07:59:57.414Z,10.22
2022-09-28T08:02:46.485Z,10.21
2022-09-28T08:05:22.991Z,10.23
2022-09-28T08:07:57.877Z,10.29
2022-09-28T08:10:31.841Z,10.37
2022-09-28T08:13:43.639Z,10.44
2022-09-28T08:16:32.675Z,10.51
2022-09-28T08:19:48.941Z,10.57
2022-09-28T08:22:21.727Z,10.58
2022-09-28T08:24:56.157Z,10.66
2022-09-28T08:27:28.037Z,10.75
2022-09-28T08:29:59.991Z,10.76
2022-09-28T08:32:51.053Z,10.77
2022-09-28T08:35:42.360Z,10.81
2022-09-28T08:38:24.585Z,10.78
2022-09-28T08:41:29.895Z,10.75
2022-09-28T08:44:25.016Z,10.74
2022-09-28T08:47:48.177Z,10.71
2022-09-28T08:50:51.101Z,10.70
2022-09-28T08:53:41.901Z,10.70
2022-09-28T08:56:31.598Z,10.76
2022-09-28T08:59:06.721Z,10.85
2022-09-28T09:01:43.707Z,10.91
2022-09-28T09:04:20.577Z,10.92
2022-09-28T09:07:37.177Z,11.01
2022-09-28T09:10:37.998Z,11.02
2022-09-28T09:13:19.418Z,11.03
2022-09-28T09:16:00.786Z,11.05
2022-09-28T09:19:03.565Z,11.02
2022-09-28T09:22:00.749Z,11.06
2022-09-28T09:24:46.838Z,11.06
2022-09-28T09:27:36.865Z,11.04
2022-09-28T09:30:15.020Z,11.05
2022-09-28T09:33:06.437Z,11.08
2022-09-28T09:36:08.580Z,11.15
2022-09-28T09:39:15.788Z,11.25
2022-09-28T09:42:20.949Z,11.29
2022-09-28T09:45:26.733Z,11.32
2022-09-28T09:48:22.727Z,11.38
2022-09-28T09:51:00.012Z,11.38
2022-09-28T09:53:38.720Z,11.36
2022-09-28T09:56:18.886Z,11.37
2022-09-28T09:59:15.146Z,11.39
2022-09-28T10:02:23.942Z,11.43
2022-09-28T10:05:04.035Z,11.46
2022-09-28T10:07:44.785Z,11.47
2022-09-28T10:10:24.998Z,11.51
2022-09-28T10:12:59.044Z,11.56
2022-09-28T10:15:33.129Z,11.61
2022-09-28T10:18:17.023Z,11.68
2022-09-28T10:21:12.513Z,11.70
2022-09-28T10:23:57.537Z,11.74
2022-09-28T10:26:36.701Z,11.79
2022-09-28T10:29:17.890Z,11.77
2022-09-28T10:31:51.548Z,11.73
2022-09-28T10:34:33.814Z,11.72
2022-09-28T10:37:13.475Z,11.70
2022-09-28T10:39:58.353Z,11.66
2022-09-28T10:42:36.272Z,11.66
2022-09-28T10:45:24.703Z,11.64
2022-09-28T10:47:57.042Z,11.60
2022-09-28T10:50:29.638Z,11.52
2022-09-28T10:53:21.184Z,11.43
2022-09-28T10:56:22.550Z,11.42
2022-09-28T10:58:59.930Z,11.42
2022-09-28T11:01:45.112Z,11.45
2022-09-28T11:04:27.779Z,11.43
2022-09-28T11:07:02.640Z,11.44
2022-09-28T11:09:37.905Z,11.48
2022-09-28T11:12:19.301Z,11.44
2022-09-28T11:14:57.576Z,11.41
2022-09-28T11:17:32.606Z,11.38
2022-09-28T11:20:33.176Z,11.38
2022-09-28T11:23:21.469Z,11.41
2022-09-28T11:26:07.142Z,11.49
2022-09-28T11:28:41.307Z,11.51
2022-09-28T11:31:24.910Z,11.56
2022-09-28T11:34:17.922Z,11.63
2022-09-28T11:37:28.136Z,11.70
2022-09-28T11:40:14.460Z,11.75
2022-09-28T11:42:54.087Z,11.78
2022-09-28T11:45:41.593Z,11.78
2022-09-28T11:48:16.711Z,11.79
2022-09-28T11:50:52.913Z,11.81
2022-09-28T11:53:31.038Z,11.87
2022-09-28T11:56:16.763Z,11.93
2022-09-28T11:58:51.997Z,11.98
2022-09-28T12:01:35.778Z,12.07
2022-09-28T12:04:21.820Z,12.16
2022-09-28T12:06:56.861Z,12.22
2022-09-28T12:09:37.490Z,12.27
2022-09-28T12:12:32.812Z,12.32
2022-09-28T12:15:17.869Z,12.38
2022-09-28T12:17:55.351Z,12.47
2022-09-28T12:20:31.928Z,12.54
2022-09-28T12:23:08.370Z,12.56
2022-09-28T12:25:46.348Z,12.58
2022-09-28T12:28:29.226Z,12.57
2022-09-28T12:31:09.097Z,12.59
2022-09-28T12:33:42.891Z,12.62
2022-09-28T12:36:28.622Z,12.67
2022-09-28T12:39:31.043Z,12.66
2022-09-28T12:42:17.378Z,12.60
2022-09-28T12:45:04.098Z,12.59
2022-09-28T12:48:03.416Z,12.57
2022-09-28T12:50:54.654Z,12.58
2022-09-28T12:53:49.227Z,12.59
2022-09-28T12:56:29.236Z,12.61
2022-09-28T12:59:14.507Z,12.56
2022-09-28T13:02:09.206Z,12.52
2022-09-28T13:04:54.736Z,12.47
2022-09-28T13:07:33.834Z,12.47
2022-09-28T13:10:16.933Z,12.47
2022-09-28T13:13:05.649Z,12.45
2022-09-28T13:15:47.219Z,12.47
2022-09-28T13:18:29.300Z,12.46
2022-09-28T13:21:10.206Z,12.49
2022-09-28T13:23:46.206Z,12.51
2022-09-28T13:26:23.796Z,12.49
2022-09-28T13:28:59.500Z,12.49
2022-09-28T13:31:35.972Z,12.49
2022-09-28T13:34:20.668Z,12.50
2022-09-28T13:37:21.731Z,12.52
2022-09-28T13:39:56.684Z,12.53
2022-09-28T13:42:50.863Z,12.50
2022-09-28T13:45:54.009Z,12.48
2022-09-28T13:48:38.723Z,12.42
2022-09-28T13:51:33.632Z,12.40
2022-09-28T13:54:22.036Z,12.42
2022-09-28T13:57:04.843Z,12.44
2022-09-28T13:59:46.538Z,12.45
2022-09-28T14:02:31.676Z,12.44
2022-09-28T14:05:06.235Z,12.43
2022-09-28T14:08:11.091Z,12.43
2022-09-28T14:10:54.089Z,12.43
2022-09-28T14:14:02.956Z,12.44
2022-09-28T14:16:35.978Z,12.45
2022-09-28T14:19:16.328Z,12.49
2022-09-28T14:22:05.215Z,12.51
2022-09-28T14:25:06.489Z,12.49
2022-09-28T14:28:01.588Z,12.43
2022-09-28T14:30:49.020Z,12.41
2022-09-28T14:33:28.827Z,12.40
2022-09-28T14:36:04.406Z,12.37
2022-09-28T14:39:03.120Z,12.34
2022-09-28T14:41:37.787Z,12.30
2022-09-28T14:44:12.039Z,12.24
2022-09-28T14:46:48.178Z,12.19
2022-09-28T14:50:00.629Z,12.14
2022-09-28T14:52:45.971Z,12.11
2022-09-28T14:55:28.226Z,12.10
2022-09-28T14:58:22.523Z,12.03
2022-09-28T15:01:06.535Z,12.07
2022-09-28T15:03:44.952Z,12.07
2022-09-28T15:06:19.751Z,12.06
2022-09-28T15:08:54.162Z,12.05
2022-09-28T15:11:28.435Z,12.04
2022-09-28T15:14:10.898Z,12.02
2022-09-28T15:16:44.582Z,11.99
2022-09-28T15:19:31.005Z,11.97
2022-09-28T15:22:03.105Z,11.92
2022-09-28T15:24:36.222Z,11.91
2022-09-28T15:30:41.526Z,11.84
2022-09-28T15:34:04.575Z,11.80
2022-09-28T15:36:42.095Z,11.77
2022-09-28T15:39:17.192Z,11.71
2022-09-28T15:41:51.913Z,11.66
2022-09-28T15:44:32.354Z,11.61
2022-09-28T15:47:13.917Z,11.60
2022-09-28T15:49:57.224Z,11.58
2022-09-28T15:52:36.237Z,11.55
2022-09-28T15:55:23.790Z,11.52
2022-09-28T15:58:08.872Z,11.51
2022-09-28T16:00:41.677Z,11.48
2022-09-28T16:03:31.294Z,11.43
2022-09-28T16:06:11.239Z,11.42
2022-09-28T16:08:48.962Z,11.39
2022-09-28T16:11:24.267Z,11.36
2022-09-28T16:14:06.219Z,11.34
2022-09-28T16:16:46.717Z,11.30
2022-09-28T16:19:26.098Z,11.24
2022-09-28T16:22:24.474Z,11.19
2022-09-28T16:25:01.685Z,11.13
2022-09-28T16:27:44.789Z,11.09
2022-09-28T16:30:22.316Z,11.07
2022-09-28T16:32:57.446Z,11.05
2022-09-28T16:35:52.250Z,11.01
2022-09-28T16:38:31.241Z,10.97
2022-09-28T16:41:16.214Z,10.96
2022-09-28T16:43:52.609Z,10.91
2022-09-28T16:46:37.442Z,10.94
2022-09-28T16:49:16.292Z,10.92
2022-09-28T16:51:51.310Z,10.87
2022-09-28T16:54:44.400Z,10.79
2022-09-28T16:57:19.249Z,10.70
2022-09-28T17:00:05.290Z,10.72
2022-09-28T17:02:46.613Z,10.66
2022-09-28T17:05:20.619Z,10.61
2022-09-28T17:08:02.853Z,10.57
2022-09-28T17:14:23.073Z,10.45
2022-09-28T17:17:09.649Z,10.40
2022-09-28T17:19:42.782Z,10.38
2022-09-28T17:22:16.803Z,10.32
2022-09-28T17:24:51.622Z,10.27
2022-09-28T17:27:26.050Z,10.23
2022-09-28T17:29:58.095Z,10.20
2022-09-28T17:36:05.168Z,10.10
2022-09-28T17:38:42.089Z,10.01
2022-09-28T17:41:24.873Z,9.98
2022-09-28T17:44:17.523Z,9.94
2022-09-28T17:46:58.517Z,9.84
2022-09-28T17:49:42.203Z,9.83
2022-09-28T18:04:52.273Z,10.13
2022-09-28T18:19:06.078Z,10.31
2022-09-28T18:32:17.539Z,10.47
2022-09-28T18:34:50.313Z,10.39
2022-09-28T18:37:22.918Z,10.29
2022-09-28T18:39:55.506Z,10.20
2022-09-28T18:42:30.026Z,10.02
2022-09-28T18:45:18.800Z,9.91
2022-09-28T18:47:58.663Z,9.86
2022-09-28T18:50:34.523Z,9.83
2022-09-28T18:53:13.804Z,9.79
2022-09-28T18:55:46.616Z,9.76
2022-09-28T18:58:18.953Z,9.73
2022-09-28T19:00:51.374Z,9.70
2022-09-28T19:03:24.149Z,9.66
2022-09-28T19:05:56.564Z,9.61
2022-09-28T19:08:28.662Z,9.56
2022-09-28T19:11:09.521Z,9.51
2022-09-28T19:13:42.075Z,9.49
2022-09-28T19:16:18.013Z,9.47
2022-09-28T19:18:51.395Z,9.46
2022-09-28T19:21:23.720Z,9.43
2022-09-28T19:23:55.882Z,9.43
2022-09-28T19:26:30.290Z,9.42
2022-09-28T19:29:03.501Z,9.42
2022-09-28T19:31:36.673Z,9.41
2022-09-28T19:34:11.798Z,9.38
2022-09-28T19:36:51.925Z,9.35
2022-09-28T19:53:26.925Z,9.59
2022-09-28T19:56:03.359Z,9.59
2022-09-28T19:58:38.027Z,9.54
2022-09-28T20:01:10.326Z,9.49
2022-09-28T20:03:45.280Z,9.41
2022-09-28T20:06:18.483Z,9.39
2022-09-28T20:08:53.775Z,9.33
2022-09-28T20:11:26.792Z,9.28
2022-09-28T20:13:59.699Z,9.25
2022-09-28T20:16:32.243Z,9.21
2022-09-28T20:19:07.410Z,9.16
2022-09-28T20:21:39.880Z,9.12
2022-09-28T20:24:13.647Z,9.10
2022-09-28T20:26:46.724Z,9.09
2022-09-28T20:29:18.920Z,9.07
2022-09-28T20:31:51.433Z,9.05
2022-09-28T20:34:23.576Z,9.04
2022-09-28T20:36:55.693Z,9.02
2022-09-28T20:39:28.006Z,9.01
2022-09-28T20:42:00.401Z,9.00
2022-09-28T20:44:32.750Z,8.99
2022-09-28T20:47:04.899Z,8.98
2022-09-28T20:49:37.500Z,8.97
2022-09-28T20:52:09.547Z,8.94
2022-09-28T20:54:41.552Z,8.92
2022-09-28T20:57:18.427Z,8.89
2022-09-28T20:59:55.032Z,8.86
2022-09-28T21:02:27.311Z,8.83
2022-09-28T21:04:59.460Z,8.81
2022-09-28T21:07:31.458Z,8.80
2022-09-28T21:10:03.594Z,8.80
2022-09-28T21:12:36.969Z,8.81
2022-09-28T21:15:10.555Z,8.83
2022-09-28T21:17:43.673Z,8.84
2022-09-28T21:20:15.813Z,8.86
2022-09-28T21:22:48.330Z,8.88
2022-09-28T21:25:20.376Z,8.90
2022-09-28T21:27:52.955Z,8.91
2022-09-28T21:30:24.984Z,8.92
2022-09-28T21:32:57.342Z,8.94
2022-09-28T21:35:29.527Z,8.96
2022-09-28T21:38:01.622Z,8.97
2022-09-28T21:40:33.904Z,8.98
2022-09-28T21:43:07.633Z,8.99
2022-09-28T21:45:39.899Z,9.00
2022-09-28T21:48:11.991Z,9.00
2022-09-28T21:50:44.101Z,9.01
2022-09-28T21:53:20.683Z,9.01
2022-09-28T21:55:54.295Z,9.01
2022-09-28T21:58:29.734Z,9.01
2022-09-28T22:01:06.941Z,9.02
2022-09-28T22:03:39.707Z,9.02
2022-09-28T22:06:12.702Z,9.03
2022-09-28T22:08:45.087Z,9.03
2022-09-28T22:11:20.258Z,9.04
2022-09-28T22:13:54.524Z,9.04
2022-09-28T22:16:28.826Z,9.06
2022-09-28T22:19:01.178Z,9.05
2022-09-28T22:21:35.073Z,9.06
2022-09-28T22:24:09.023Z,9.06
2022-09-28T22:26:41.038Z,9.05
2022-09-28T22:29:13.276Z,9.06
2022-09-28T22:31:45.328Z,9.07
2022-09-28T22:34:20.419Z,9.06
2022-09-28T22:36:54.897Z,9.05
2022-09-28T22:39:27.224Z,9.06
2022-09-28T22:42:01.025Z,9.04
2022-09-28T22:44:35.829Z,9.04
2022-09-28T22:47:07.953Z,9.05
2022-09-28T22:49:40.217Z,9.05
2022-09-28T22:52:13.076Z,9.06
2022-09-28T22:54:45.688Z,9.06
2022-09-28T22:57:17.982Z,9.06
2022-09-28T22:59:50.980Z,9.06
2022-09-28T23:02:23.736Z,9.05
2022-09-28T23:04:55.863Z,9.05
2022-09-28T23:07:27.908Z,9.04
2022-09-28T23:10:05.089Z,9.03
2022-09-28T23:12:38.297Z,9.02
2022-09-28T23:15:12.540Z,9.02
2022-09-28T23:17:44.880Z,9.02
2022-09-28T23:20:16.966Z,9.01
2022-09-28T23:22:50.650Z,9.00
2022-09-28T23:25:25.116Z,9.00
2022-09-28T23:27:57.467Z,9.00
2022-09-28T23:30:29.747Z,9.00
2022-09-28T23:33:04.516Z,8.99
2022-09-28T23:35:37.357Z,8.99
2022-09-28T23:38:13.422Z,8.97
2022-09-28T23:40:45.667Z,8.99
2022-09-28T23:43:18.129Z,8.99
2022-09-28T23:45:50.307Z,9.00
2022-09-28T23:48:22.318Z,9.00
2022-09-28T23:50:54.509Z,9.00
2022-09-28T23:53:26.986Z,9.00
2022-09-28T23:55:59.653Z,9.01
2022-09-28T23:58:34.436Z,9.00
